createdAt,value
2023-10-27T00:01:58.375Z,1.75
2023-10-27T00:04:01.040Z,3.03
2023-10-27T00:06:03.845Z,1.75
2023-10-27T00:08:07.805Z,1.65
2023-10-27T00:10:10.606Z,2.78
2023-10-27T00:12:12.304Z,2.15
2023-10-27T00:14:15.116Z,2.70
2023-10-27T00:16:17.734Z,1.65
2023-10-27T00:18:20.388Z,1.42
2023-10-27T00:20:23.072Z,2.08
2023-10-27T00:22:27.181Z,2.53
2023-10-27T00:24:31.213Z,2.25
2023-10-27T00:26:33.031Z,1.95
2023-10-27T00:28:35.650Z,1.67
2023-10-27T00:30:38.839Z,1.10
2023-10-27T00:32:40.557Z,2.92
2023-10-27T00:34:43.366Z,2.35
2023-10-27T00:36:46.271Z,1.85
2023-10-27T00:38:49.349Z,1.75
2023-10-27T00:40:53.316Z,2.55
2023-10-27T00:42:58.178Z,1.42
2023-10-27T00:44:59.878Z,1.88
2023-10-27T00:47:02.879Z,2.72
2023-10-27T00:49:05.747Z,1.40
2023-10-27T00:51:08.603Z,2.47
2023-10-27T00:53:11.484Z,2.55
2023-10-27T00:55:14.150Z,2.33
2023-10-27T00:57:19.211Z,2.53
2023-10-27T00:59:21.867Z,2.42
2023-10-27T01:01:24.570Z,2.15
2023-10-27T01:03:27.587Z,3.42
2023-10-27T01:05:30.369Z,2.15
2023-10-27T01:07:33.170Z,1.55
2023-10-27T01:09:35.829Z,1.30
2023-10-27T01:11:38.621Z,2.50
2023-10-27T01:13:42.604Z,2.33
2023-10-27T01:15:45.390Z,2.67
2023-10-27T01:17:48.171Z,3.03
2023-10-27T01:19:51.046Z,3.08
2023-10-27T01:21:53.107Z,1.77
2023-10-27T01:23:57.053Z,2.72
2023-10-27T01:25:59.744Z,2.20
2023-10-27T01:28:03.784Z,2.08
2023-10-27T01:30:07.090Z,2.38
2023-10-27T01:32:09.836Z,2.67
2023-10-27T01:34:12.279Z,1.60
2023-10-27T01:36:15.089Z,1.52
2023-10-27T01:38:16.853Z,3.35
2023-10-27T01:40:23.348Z,3.22
2023-10-27T01:42:25.967Z,3.13
2023-10-27T01:44:28.685Z,2.60
2023-10-27T01:46:31.403Z,3.50
2023-10-27T01:48:34.275Z,2.00
2023-10-27T01:50:36.937Z,3.42
2023-10-27T01:52:41.886Z,2.55
2023-10-27T01:54:43.728Z,3.08
2023-10-27T01:56:47.761Z,2.58
2023-10-27T01:58:49.351Z,2.97
2023-10-27T02:00:52.046Z,4.35
2023-10-27T02:02:54.795Z,2.97
2023-10-27T02:04:57.483Z,2.60
2023-10-27T02:06:59.207Z,3.50
2023-10-27T02:09:02.442Z,2.65
2023-10-27T02:11:05.505Z,2.28
2023-10-27T02:13:09.653Z,3.75
2023-10-27T02:15:11.401Z,2.90
2023-10-27T02:17:14.192Z,3.80
2023-10-27T02:19:17.205Z,2.08
2023-10-27T02:21:20.185Z,2.90
2023-10-27T02:23:22.799Z,2.80
2023-10-27T02:25:25.650Z,3.00
2023-10-27T02:27:28.734Z,2.38
2023-10-27T02:29:32.734Z,3.30
2023-10-27T02:31:35.869Z,2.13
2023-10-27T02:33:38.733Z,2.25
2023-10-27T02:35:41.617Z,3.80
2023-10-27T02:37:44.309Z,3.13
2023-10-27T02:39:46.904Z,5.60
2023-10-27T02:41:49.556Z,2.58
2023-10-27T02:43:52.268Z,3.50
2023-10-27T02:46:02.984Z,3.78
2023-10-27T02:48:05.942Z,2.20
2023-10-27T02:50:09.046Z,2.58
2023-10-27T02:52:11.755Z,2.75
2023-10-27T02:54:14.362Z,3.85
2023-10-27T02:56:17.056Z,5.85
2023-10-27T02:58:19.727Z,3.55
2023-10-27T03:00:22.508Z,2.38
2023-10-27T03:02:25.536Z,3.28
2023-10-27T03:04:28.704Z,2.90
2023-10-27T03:06:31.700Z,3.97
2023-10-27T03:08:34.587Z,2.92
2023-10-27T03:10:37.227Z,2.83
2023-10-27T03:12:39.863Z,2.38
2023-10-27T03:14:42.813Z,4.25
2023-10-27T03:16:45.661Z,4.35
2023-10-27T03:18:49.974Z,2.67
2023-10-27T03:20:54.742Z,2.70
2023-10-27T03:22:57.370Z,4.72
2023-10-27T03:25:00.042Z,3.30
2023-10-27T03:27:02.866Z,3.80
2023-10-27T03:29:05.680Z,4.05
2023-10-27T03:31:08.594Z,3.80
2023-10-27T03:33:11.232Z,3.33
2023-10-27T03:35:15.412Z,3.40
2023-10-27T03:37:18.180Z,3.17
2023-10-27T03:39:19.883Z,4.97
2023-10-27T03:41:22.682Z,2.60
2023-10-27T03:43:25.539Z,4.03
2023-10-27T03:45:28.239Z,3.78
2023-10-27T03:47:33.712Z,4.15
2023-10-27T03:49:36.712Z,3.97
2023-10-27T03:51:40.722Z,3.55
2023-10-27T03:53:43.341Z,4.13
2023-10-27T03:55:46.350Z,4.65
2023-10-27T03:57:48.968Z,4.43
2023-10-27T03:59:51.868Z,3.17
2023-10-27T04:01:54.532Z,3.70
2023-10-27T04:03:57.528Z,3.50
2023-10-27T04:06:00.370Z,2.65
2023-10-27T04:08:05.853Z,5.20
2023-10-27T04:10:09.024Z,4.40
2023-10-27T04:12:11.828Z,4.82
2023-10-27T04:14:14.431Z,4.93
2023-10-27T04:16:17.285Z,4.25
2023-10-27T04:18:19.062Z,3.60
2023-10-27T04:20:21.966Z,4.70
2023-10-27T04:22:24.617Z,5.25
2023-10-27T04:24:28.608Z,3.67
2023-10-27T04:26:31.202Z,3.35
2023-10-27T04:28:34.085Z,4.32
2023-10-27T04:30:37.635Z,4.90
2023-10-27T04:32:40.999Z,4.03
2023-10-27T04:34:43.759Z,5.18
2023-10-27T04:36:47.061Z,4.20
2023-10-27T04:38:49.815Z,5.15
2023-10-27T04:40:53.931Z,4.97
2023-10-27T04:42:57.681Z,4.30
2023-10-27T04:45:01.108Z,3.92
2023-10-27T04:47:04.023Z,6.90
2023-10-27T04:49:06.647Z,4.22
2023-10-27T04:51:10.774Z,5.68
2023-10-27T04:53:13.479Z,5.75
2023-10-27T04:55:16.372Z,3.35
2023-10-27T04:57:20.727Z,4.88
2023-10-27T04:59:23.448Z,4.25
2023-10-27T05:01:29.243Z,4.75
2023-10-27T05:03:32.217Z,4.95
2023-10-27T05:05:34.872Z,5.15
2023-10-27T05:07:38.041Z,4.78
2023-10-27T05:09:40.943Z,5.43
2023-10-27T05:11:43.831Z,3.42
2023-10-27T05:13:46.830Z,4.20
2023-10-27T05:15:56.004Z,4.55
2023-10-27T05:18:02.874Z,6.07
2023-10-27T05:20:06.695Z,5.35
2023-10-27T05:22:09.354Z,6.15
2023-10-27T05:24:12.397Z,4.00
2023-10-27T05:26:15.621Z,5.85
2023-10-27T05:28:20.334Z,3.70
2023-10-27T05:30:24.466Z,5.20
2023-10-27T05:32:27.222Z,3.35
2023-10-27T05:34:32.268Z,4.53
2023-10-27T05:36:36.547Z,5.03
2023-10-27T05:38:39.479Z,5.57
2023-10-27T05:40:42.151Z,3.97
2023-10-27T05:42:45.040Z,4.95
2023-10-27T05:44:47.681Z,4.68
2023-10-27T05:46:51.681Z,3.85
2023-10-27T05:48:54.311Z,4.78
2023-10-27T05:50:57.030Z,3.47
2023-10-27T05:52:59.693Z,5.78
2023-10-27T05:55:02.544Z,5.43
2023-10-27T05:57:05.396Z,4.97
2023-10-27T05:59:08.220Z,4.57
2023-10-27T06:01:10.936Z,3.28
2023-10-27T06:03:14.976Z,3.22
2023-10-27T06:05:17.683Z,5.18
2023-10-27T06:07:20.740Z,4.28
2023-10-27T06:09:23.345Z,6.40
2023-10-27T06:11:25.940Z,3.67
2023-10-27T06:13:28.560Z,5.75
2023-10-27T06:15:31.381Z,5.15
2023-10-27T06:17:34.475Z,5.47
2023-10-27T06:19:38.601Z,5.35
2023-10-27T06:21:41.526Z,4.47
2023-10-27T06:23:44.692Z,4.40
2023-10-27T06:25:46.530Z,3.38
2023-10-27T06:27:49.958Z,4.30
2023-10-27T06:29:52.551Z,3.30
2023-10-27T06:31:54.174Z,4.30
2023-10-27T06:33:57.547Z,5.80
2023-10-27T06:36:00.821Z,4.40
2023-10-27T06:38:03.689Z,4.15
2023-10-27T06:40:07.823Z,4.40
2023-10-27T06:42:10.537Z,6.10
2023-10-27T06:44:13.313Z,4.20
2023-10-27T06:46:17.016Z,4.43
2023-10-27T06:48:19.940Z,4.57
2023-10-27T06:50:22.824Z,4.00
2023-10-27T06:52:26.990Z,4.70
2023-10-27T06:54:29.604Z,4.72
2023-10-27T06:56:32.573Z,5.70
2023-10-27T06:58:35.448Z,3.92
2023-10-27T07:00:38.092Z,4.07
2023-10-27T07:02:55.586Z,3.65
2023-10-27T07:04:59.535Z,5.85
2023-10-27T07:07:09.192Z,4.43
2023-10-27T07:09:27.458Z,4.15
2023-10-27T07:11:30.245Z,5.22
2023-10-27T07:13:33.176Z,5.13
2023-10-27T07:15:36.015Z,5.25
2023-10-27T07:17:38.783Z,4.28
2023-10-27T07:19:44.373Z,3.15
2023-10-27T07:21:47.062Z,4.45
2023-10-27T07:23:49.935Z,4.93
2023-10-27T07:25:54.058Z,5.22
2023-10-27T07:27:58.219Z,4.93
2023-10-27T07:30:01.221Z,2.92
2023-10-27T07:32:04.758Z,4.65
2023-10-27T07:34:07.665Z,4.53
2023-10-27T07:36:11.141Z,4.00
2023-10-27T07:38:13.977Z,3.17
2023-10-27T07:40:17.176Z,5.00
2023-10-27T07:42:21.284Z,4.97
2023-10-27T07:44:23.886Z,4.82
2023-10-27T07:46:26.841Z,4.10
2023-10-27T07:48:29.517Z,3.10
2023-10-27T07:50:33.308Z,3.95
2023-10-27T07:52:36.097Z,3.97
2023-10-27T07:54:39.360Z,8.82
2023-10-27T07:56:41.996Z,6.90
2023-10-27T07:58:46.017Z,5.85
2023-10-27T08:00:48.685Z,5.57
2023-10-27T08:02:53.115Z,6.25
2023-10-27T08:04:56.001Z,5.32
2023-10-27T08:06:58.679Z,6.13
2023-10-27T08:09:00.403Z,3.35
2023-10-27T08:11:05.624Z,5.47
2023-10-27T08:13:08.453Z,3.25
2023-10-27T08:15:12.577Z,4.30
2023-10-27T08:17:15.274Z,3.83
2023-10-27T08:19:18.067Z,4.40
2023-10-27T08:21:20.896Z,3.78
2023-10-27T08:23:23.670Z,3.55
2023-10-27T08:25:26.403Z,4.15
2023-10-27T08:27:29.100Z,4.28
2023-10-27T08:29:31.706Z,3.65
2023-10-27T08:31:35.951Z,5.55
2023-10-27T08:33:37.685Z,3.58
2023-10-27T08:35:40.595Z,3.47
2023-10-27T08:37:43.243Z,3.35
2023-10-27T08:39:46.733Z,4.47
2023-10-27T08:41:50.181Z,4.70
2023-10-27T08:43:53.408Z,3.92
2023-10-27T08:45:56.992Z,5.30
2023-10-27T08:48:02.914Z,3.92
2023-10-27T08:50:06.177Z,4.15
2023-10-27T08:52:09.638Z,3.65
2023-10-27T08:54:13.139Z,3.00
2023-10-27T08:56:16.247Z,3.35
2023-10-27T08:58:19.197Z,3.85
2023-10-27T09:00:21.942Z,3.55
2023-10-27T09:02:30.993Z,5.28
2023-10-27T09:04:35.466Z,3.17
2023-10-27T09:06:38.540Z,3.05
2023-10-27T09:08:41.255Z,2.60
2023-10-27T09:10:48.748Z,2.60
2023-10-27T09:12:58.378Z,4.88
2023-10-27T09:15:00.827Z,2.85
2023-10-27T09:17:07.540Z,3.47
2023-10-27T09:19:18.088Z,3.83
2023-10-27T09:21:33.564Z,5.97
2023-10-27T09:23:45.421Z,4.07
2023-10-27T09:25:48.693Z,4.50
2023-10-27T09:27:51.149Z,4.60
2023-10-27T09:29:53.853Z,5.20
2023-10-27T09:31:56.517Z,4.97
2023-10-27T09:34:17.106Z,4.47
2023-10-27T09:36:20.194Z,4.47
2023-10-27T09:38:25.041Z,5.22
2023-10-27T09:40:26.737Z,4.45
2023-10-27T09:42:29.902Z,5.93
2023-10-27T09:44:37.140Z,4.18
2023-10-27T09:46:41.397Z,4.25
2023-10-27T09:48:44.877Z,4.13
2023-10-27T09:50:48.951Z,4.53
2023-10-27T09:52:51.955Z,7.10
2023-10-27T09:55:06.105Z,7.43
2023-10-27T09:57:17.909Z,4.80
2023-10-27T09:59:20.848Z,4.65
2023-10-27T10:01:23.956Z,6.43
2023-10-27T10:03:28.827Z,5.47
2023-10-27T10:05:51.728Z,3.83
2023-10-27T10:07:55.438Z,4.78
2023-10-27T10:09:58.720Z,6.85
2023-10-27T10:12:01.583Z,6.68
2023-10-27T10:14:06.237Z,6.10
2023-10-27T10:16:09.768Z,5.95
2023-10-27T10:18:27.472Z,9.52
2023-10-27T10:20:48.792Z,5.57
2023-10-27T10:22:56.386Z,4.68
2023-10-27T10:25:15.851Z,5.32
2023-10-27T10:27:20.484Z,5.90
2023-10-27T10:29:33.556Z,4.50
2023-10-27T10:31:38.229Z,6.60
2023-10-27T10:33:41.456Z,5.25
2023-10-27T10:35:44.303Z,5.13
2023-10-27T10:37:46.159Z,6.10
2023-10-27T10:40:07.597Z,6.78
2023-10-27T10:42:10.244Z,5.53
2023-10-27T10:44:14.266Z,4.88
2023-10-27T10:46:17.601Z,7.05
2023-10-27T10:48:19.655Z,6.15
2023-10-27T10:50:28.807Z,7.78
2023-10-27T10:54:40.090Z,7.93
2023-10-27T10:56:41.774Z,9.65
2023-10-27T10:58:44.592Z,9.20
2023-10-27T11:00:49.310Z,7.35
2023-10-27T11:02:52.005Z,9.20
2023-10-27T11:04:54.928Z,9.05
2023-10-27T11:07:00.947Z,8.13
2023-10-27T11:09:05.372Z,7.75
2023-10-27T11:11:08.541Z,8.90
2023-10-27T11:13:10.417Z,12.55
2023-10-27T11:15:34.346Z,12.70
2023-10-27T11:17:50.675Z,10.90
2023-10-27T11:19:56.594Z,11.70
2023-10-27T11:21:59.273Z,9.13
2023-10-27T11:24:08.407Z,10.00
2023-10-27T11:26:11.843Z,12.95
2023-10-27T11:28:24.680Z,11.05
2023-10-27T11:30:27.404Z,15.23
2023-10-27T11:32:30.273Z,9.98
2023-10-27T11:34:37.601Z,31.42
2023-10-27T11:36:43.896Z,85.65
2023-10-27T11:38:46.688Z,129.70
2023-10-27T11:40:49.367Z,595.40
2023-10-27T11:42:52.068Z,688.97
2023-10-27T11:44:54.705Z,426.15
2023-10-27T11:46:58.221Z,329.73
2023-10-27T11:48:59.870Z,218.98
2023-10-27T11:51:03.832Z,184.30
2023-10-27T11:53:06.491Z,228.25
2023-10-27T11:55:09.793Z,171.82
2023-10-27T11:57:13.425Z,138.43
2023-10-27T11:59:16.214Z,131.80
2023-10-27T12:01:20.214Z,125.45
2023-10-27T12:03:23.271Z,131.50
2023-10-27T12:05:25.930Z,128.68
2023-10-27T12:07:30.010Z,119.57
2023-10-27T12:09:32.677Z,115.15
2023-10-27T12:11:35.340Z,100.50
2023-10-27T12:13:38.089Z,102.43
2023-10-27T12:15:39.914Z,89.15
2023-10-27T12:17:43.185Z,86.78
2023-10-27T12:19:46.796Z,75.90
2023-10-27T12:21:51.129Z,71.38
2023-10-27T12:23:55.293Z,72.43
2023-10-27T12:25:58.925Z,73.93
2023-10-27T12:28:02.137Z,68.75
2023-10-27T12:30:05.412Z,59.17
2023-10-27T12:32:11.081Z,57.58
2023-10-27T12:34:13.924Z,52.13
2023-10-27T12:36:16.650Z,49.28
2023-10-27T12:38:19.600Z,44.58
2023-10-27T12:40:24.137Z,45.28
2023-10-27T12:42:29.540Z,42.35
2023-10-27T12:44:32.158Z,42.75
2023-10-27T12:46:35.218Z,39.38
2023-10-27T12:48:37.938Z,39.70
2023-10-27T12:50:40.698Z,32.75
2023-10-27T12:52:43.787Z,40.20
2023-10-27T12:54:46.605Z,33.30
2023-10-27T12:56:51.086Z,38.55
2023-10-27T12:58:54.071Z,32.20
2023-10-27T13:00:56.844Z,32.70
2023-10-27T13:03:00.142Z,29.60
2023-10-27T13:05:01.942Z,27.67
2023-10-27T13:07:04.956Z,28.77
2023-10-27T13:09:08.109Z,31.05
2023-10-27T13:11:11.093Z,27.77
2023-10-27T13:13:15.405Z,28.45
2023-10-27T13:15:18.260Z,30.27
2023-10-27T13:17:21.865Z,27.95
2023-10-27T13:19:25.490Z,35.08
2023-10-27T13:21:28.289Z,28.20
2023-10-27T13:23:31.189Z,29.70
2023-10-27T13:25:34.040Z,25.42
2023-10-27T13:27:37.205Z,23.75
2023-10-27T13:29:40.515Z,28.30
2023-10-27T13:31:45.598Z,25.27
2023-10-27T13:33:48.458Z,27.02
2023-10-27T13:35:51.249Z,46.38
2023-10-27T13:37:54.461Z,188.52
2023-10-27T13:39:58.453Z,60.97
2023-10-27T13:42:02.326Z,28.05
2023-10-27T13:44:05.879Z,22.02
2023-10-27T13:46:10.081Z,21.80
2023-10-27T13:48:14.739Z,24.92
2023-10-27T13:50:17.500Z,31.23
2023-10-27T13:52:20.240Z,26.40
2023-10-27T13:54:23.601Z,31.23
2023-10-27T13:56:28.318Z,30.70
2023-10-27T13:58:32.536Z,31.15
2023-10-27T14:00:35.594Z,28.20
2023-10-27T14:02:39.644Z,26.17
2023-10-27T14:04:42.400Z,26.80
2023-10-27T14:06:48.591Z,21.10
2023-10-27T14:08:50.227Z,17.77
2023-10-27T14:10:53.479Z,21.38
2023-10-27T14:12:56.260Z,19.75
2023-10-27T14:14:59.129Z,19.38
2023-10-27T14:17:02.108Z,14.80
2023-10-27T14:19:06.228Z,20.30
2023-10-27T14:21:08.912Z,16.73
2023-10-27T14:23:11.737Z,17.38
2023-10-27T14:25:14.609Z,16.23
2023-10-27T14:27:17.272Z,18.35
2023-10-27T14:29:19.918Z,13.23
2023-10-27T14:31:22.810Z,12.45
2023-10-27T14:33:25.557Z,14.48
2023-10-27T14:35:31.230Z,14.52
2023-10-27T14:37:34.401Z,16.20
2023-10-27T14:39:42.232Z,17.20
2023-10-27T14:41:45.016Z,24.63
2023-10-27T14:43:47.885Z,18.02
2023-10-27T14:45:57.795Z,13.93
2023-10-27T14:50:04.080Z,13.90
2023-10-27T14:52:11.187Z,15.82
2023-10-27T14:54:18.380Z,13.10
2023-10-27T14:56:21.444Z,13.77
2023-10-27T14:58:23.057Z,12.18
2023-10-27T15:00:25.880Z,11.85
2023-10-27T15:02:28.516Z,15.85
2023-10-27T15:04:31.555Z,11.73
2023-10-27T15:06:34.198Z,12.75
2023-10-27T15:08:38.223Z,11.65
2023-10-27T15:10:40.903Z,11.40
2023-10-27T15:12:44.020Z,13.52
2023-10-27T15:14:51.447Z,12.82
2023-10-27T15:16:54.113Z,13.32
2023-10-27T15:18:57.067Z,11.60
2023-10-27T15:20:59.415Z,12.90
2023-10-27T15:23:02.152Z,13.73
2023-10-27T15:25:08.022Z,11.82
2023-10-27T15:27:11.146Z,13.45
2023-10-27T15:29:12.911Z,15.05
2023-10-27T15:31:16.035Z,17.45
2023-10-27T15:33:18.745Z,10.38
2023-10-27T15:35:21.803Z,12.00
2023-10-27T15:37:25.398Z,12.25
2023-10-27T15:39:28.600Z,14.52
2023-10-27T15:41:34.040Z,12.30
2023-10-27T15:43:35.997Z,9.73
2023-10-27T15:47:49.516Z,14.13
2023-10-27T15:49:53.032Z,10.70
2023-10-27T15:51:57.384Z,20.08
2023-10-27T15:54:01.062Z,13.93
2023-10-27T15:56:04.069Z,14.30
2023-10-27T15:58:08.291Z,12.05
2023-10-27T16:00:13.491Z,17.58
2023-10-27T16:02:16.696Z,10.23
2023-10-27T16:04:20.360Z,12.88
2023-10-27T16:06:23.622Z,9.73
2023-10-27T16:08:26.527Z,9.70
2023-10-27T16:10:29.704Z,9.82
2023-10-27T16:16:50.144Z,6.78
2023-10-27T16:18:55.010Z,7.65
2023-10-27T16:21:00.389Z,7.65
2023-10-27T16:23:04.169Z,5.50
2023-10-27T16:25:08.199Z,9.32
2023-10-27T16:27:11.758Z,7.53
2023-10-27T16:29:14.436Z,7.25
2023-10-27T16:31:19.506Z,7.28
2023-10-27T16:33:22.389Z,6.00
2023-10-27T16:35:25.270Z,3.80
2023-10-27T16:37:27.079Z,4.82
2023-10-27T16:39:30.692Z,5.05
2023-10-27T16:41:33.258Z,5.47
2023-10-27T16:43:38.442Z,5.90
2023-10-27T16:45:40.256Z,5.88
2023-10-27T16:47:44.378Z,5.15
2023-10-27T16:49:48.135Z,4.13
2023-10-27T16:51:53.330Z,4.03
2023-10-27T16:53:56.067Z,5.40
2023-10-27T16:55:58.828Z,6.10
2023-10-27T16:58:02.475Z,4.68
2023-10-27T17:00:06.961Z,2.92
2023-10-27T17:02:11.197Z,3.58
2023-10-27T17:04:15.286Z,4.35
2023-10-27T17:06:19.392Z,3.78
2023-10-27T17:08:22.080Z,2.25
2023-10-27T17:10:24.765Z,3.38
2023-10-27T17:12:27.428Z,3.60
2023-10-27T17:14:29.628Z,3.03
2023-10-27T17:16:32.283Z,2.13
2023-10-27T17:18:34.252Z,3.28
2023-10-27T17:20:38.275Z,3.78
2023-10-27T17:22:40.983Z,2.55
2023-10-27T17:24:45.123Z,3.10
2023-10-27T17:26:47.754Z,2.08
2023-10-27T17:28:50.706Z,2.75
2023-10-27T17:30:53.482Z,3.33
2023-10-27T17:32:56.189Z,2.33
2023-10-27T17:34:58.879Z,3.65
2023-10-27T17:37:04.951Z,2.90
2023-10-27T17:39:09.724Z,4.38
2023-10-27T17:41:12.920Z,3.88
2023-10-27T17:43:15.624Z,3.65
2023-10-27T17:45:18.710Z,4.55
2023-10-27T17:47:21.306Z,3.30
2023-10-27T17:49:24.203Z,5.30
2023-10-27T17:51:26.963Z,2.90
2023-10-27T17:53:31.304Z,4.28
2023-10-27T17:55:36.253Z,3.05
2023-10-27T17:57:41.051Z,3.50
2023-10-27T17:59:44.200Z,3.63
2023-10-27T18:01:49.730Z,1.88
2023-10-27T18:03:52.415Z,3.35
2023-10-27T18:05:56.137Z,3.22
2023-10-27T18:07:58.919Z,2.95
2023-10-27T18:10:03.908Z,2.80
2023-10-27T18:12:07.296Z,1.92
2023-10-27T18:14:11.261Z,2.28
2023-10-27T18:16:13.863Z,2.80
2023-10-27T18:18:17.548Z,3.92
2023-10-27T18:20:20.465Z,2.33
2023-10-27T18:22:23.880Z,2.72
2023-10-27T18:24:26.785Z,2.65
2023-10-27T18:26:30.784Z,2.47
2023-10-27T18:28:32.564Z,2.33
2023-10-27T18:30:35.821Z,2.20
2023-10-27T18:32:38.730Z,3.35
2023-10-27T18:34:41.435Z,3.10
2023-10-27T18:36:44.191Z,2.17
2023-10-27T18:38:46.920Z,3.38
2023-10-27T18:40:49.757Z,3.10
2023-10-27T18:42:53.079Z,2.05
2023-10-27T18:44:55.793Z,3.03
2023-10-27T18:46:58.553Z,3.35
2023-10-27T18:49:01.389Z,3.25
2023-10-27T18:51:04.325Z,2.10
2023-10-27T18:53:06.961Z,2.05
2023-10-27T18:55:09.974Z,2.55
2023-10-27T18:57:13.821Z,3.47
2023-10-27T18:59:18.757Z,2.65
2023-10-27T19:01:21.516Z,2.70
2023-10-27T19:03:30.749Z,2.65
2023-10-27T19:05:33.701Z,3.28
2023-10-27T19:07:36.940Z,2.45
2023-10-27T19:09:39.823Z,1.92
2023-10-27T19:11:42.457Z,1.90
2023-10-27T19:13:45.406Z,2.88
2023-10-27T19:15:52.327Z,3.22
2023-10-27T19:17:56.017Z,2.40
2023-10-27T19:19:59.342Z,2.05
2023-10-27T19:22:01.976Z,3.67
2023-10-27T19:24:04.916Z,4.68
2023-10-27T19:26:14.098Z,3.53
2023-10-27T19:28:16.747Z,5.57
2023-10-27T19:30:19.916Z,5.03
2023-10-27T19:32:23.828Z,1.70
2023-10-27T19:34:26.771Z,4.00
2023-10-27T19:36:31.665Z,3.78
2023-10-27T19:38:34.397Z,3.88
2023-10-27T19:40:37.857Z,2.88
2023-10-27T19:42:42.331Z,2.67
2023-10-27T19:44:47.141Z,2.35
2023-10-27T19:46:50.067Z,2.75
2023-10-27T19:48:54.688Z,3.70
2023-10-27T19:50:58.144Z,4.22
2023-10-27T19:53:01.003Z,2.63
2023-10-27T19:55:04.848Z,4.78
2023-10-27T19:57:07.483Z,2.70
2023-10-27T19:59:12.007Z,3.08
2023-10-27T20:01:15.522Z,2.60
2023-10-27T20:03:18.309Z,5.15
2023-10-27T20:05:23.479Z,2.03
2023-10-27T20:07:26.503Z,3.42
2023-10-27T20:09:29.475Z,2.95
2023-10-27T20:11:31.279Z,2.83
2023-10-27T20:13:35.836Z,3.13
2023-10-27T20:15:39.414Z,2.45
2023-10-27T20:17:41.482Z,2.40
2023-10-27T20:19:44.214Z,3.13
2023-10-27T20:21:48.617Z,2.50
2023-10-27T20:23:51.432Z,3.05
2023-10-27T20:25:56.467Z,2.42
2023-10-27T20:28:00.355Z,2.08
2023-10-27T20:30:03.880Z,1.67
2023-10-27T20:32:06.887Z,1.92
2023-10-27T20:34:09.552Z,2.17
2023-10-27T20:36:12.954Z,2.95
2023-10-27T20:38:17.319Z,2.53
2023-10-27T20:40:20.371Z,2.03
2023-10-27T20:42:23.048Z,2.05
2023-10-27T20:44:26.668Z,2.45
2023-10-27T20:46:29.840Z,2.05
2023-10-27T20:48:31.750Z,2.00
2023-10-27T20:50:34.659Z,3.17
2023-10-27T20:52:37.363Z,2.22
2023-10-27T20:54:41.382Z,3.05
2023-10-27T20:56:43.975Z,2.42
2023-10-27T20:58:46.697Z,1.85
2023-10-27T21:00:49.428Z,2.97
2023-10-27T21:02:51.336Z,2.42
2023-10-27T21:04:54.280Z,3.42
2023-10-27T21:06:57.216Z,2.78
2023-10-27T21:08:59.923Z,1.73
2023-10-27T21:11:04.184Z,2.47
2023-10-27T21:13:07.044Z,2.88
2023-10-27T21:15:10.009Z,3.10
2023-10-27T21:17:12.828Z,2.08
2023-10-27T21:19:14.529Z,2.17
2023-10-27T21:21:17.161Z,2.58
2023-10-27T21:23:21.350Z,3.35
2023-10-27T21:25:24.001Z,2.13
2023-10-27T21:27:28.620Z,4.07
2023-10-27T21:29:31.508Z,3.08
2023-10-27T21:31:34.179Z,3.83
2023-10-27T21:33:37.225Z,3.47
2023-10-27T21:35:40.041Z,2.08
2023-10-27T21:37:42.800Z,2.25
2023-10-27T21:39:51.316Z,2.75
2023-10-27T21:41:54.267Z,3.40
2023-10-27T21:43:58.632Z,4.03
2023-10-27T21:46:01.334Z,2.42
2023-10-27T21:48:04.332Z,2.92
2023-10-27T21:50:08.228Z,4.25
2023-10-27T21:52:11.030Z,3.97
2023-10-27T21:54:15.952Z,3.55
2023-10-27T21:56:18.629Z,3.40
2023-10-27T21:58:21.682Z,4.20
2023-10-27T22:00:37.639Z,3.50
2023-10-27T22:02:40.445Z,3.30
2023-10-27T22:04:43.482Z,4.00
2023-10-27T22:06:47.836Z,2.75
2023-10-27T22:08:50.705Z,3.00
2023-10-27T22:10:55.904Z,2.33
2023-10-27T22:12:58.625Z,3.22
2023-10-27T22:15:01.670Z,4.07
2023-10-27T22:17:06.508Z,4.10
2023-10-27T22:19:08.641Z,4.10
2023-10-27T22:21:11.821Z,3.15
2023-10-27T22:23:15.972Z,3.75
2023-10-27T22:25:19.350Z,3.25
2023-10-27T22:27:22.015Z,3.17
2023-10-27T22:29:24.671Z,3.47
2023-10-27T22:31:27.332Z,3.17
2023-10-27T22:33:31.374Z,3.75
2023-10-27T22:35:33.080Z,3.00
2023-10-27T22:37:35.768Z,3.40
2023-10-27T22:39:40.272Z,3.83
2023-10-27T22:41:43.364Z,4.60
2023-10-27T22:43:46.065Z,3.38
2023-10-27T22:45:48.723Z,4.05
2023-10-27T22:47:52.979Z,3.58
2023-10-27T22:49:57.111Z,4.63
2023-10-27T22:51:59.944Z,5.00
2023-10-27T22:54:04.935Z,3.30
2023-10-27T22:56:08.495Z,3.42
2023-10-27T22:58:10.519Z,3.45
2023-10-27T23:00:13.858Z,4.28
2023-10-27T23:02:16.693Z,5.68
2023-10-27T23:04:19.621Z,3.22
2023-10-27T23:06:24.632Z,4.57
2023-10-27T23:08:27.440Z,5.05
2023-10-27T23:10:30.338Z,2.97
2023-10-27T23:12:33.438Z,3.97
2023-10-27T23:14:36.273Z,4.43
2023-10-27T23:16:39.026Z,5.05
2023-10-27T23:18:42.846Z,3.97
2023-10-27T23:20:45.505Z,4.72
2023-10-27T23:22:51.238Z,4.72
2023-10-27T23:24:54.478Z,5.32
2023-10-27T23:26:58.014Z,5.50
2023-10-27T23:29:00.699Z,3.85
2023-10-27T23:31:03.639Z,4.25
2023-10-27T23:33:07.015Z,5.20
2023-10-27T23:35:12.831Z,5.30
2023-10-27T23:37:15.500Z,4.97
2023-10-27T23:39:19.527Z,3.97
2023-10-27T23:41:21.245Z,4.72
2023-10-27T23:43:23.913Z,3.78
2023-10-27T23:45:27.286Z,4.13
2023-10-27T23:47:29.921Z,4.47
2023-10-27T23:49:32.601Z,4.80
2023-10-27T23:51:35.434Z,5.32
2023-10-27T23:53:38.316Z,4.38
2023-10-27T23:55:42.412Z,6.25
2023-10-27T23:57:46.955Z,5.18
2023-10-27T23:59:49.865Z,4.88
